Time;durP1;ratioP1;P1;durP2;ratioP2;P2;SDS_P1;SDS_P2;PMS_P1;PMS_P2;Temp;Humidity;BMP_temperature;BMP_pressure;BME280_temperature;BME280_humidity;BME280_pressure;Samples;Min_cycle;Max_cycle;Signal;HPM_P1;HPM_P2
2021/10/04 00:00:01;;;;;;;6.13;1.13;;;9.80;46.70;;;;;;4830654;28;20249;-84
2021/10/04 00:02:34;;;;;;;5.67;1.07;;;;;;;;;;4832994;28;20285;-77
2021/10/04 00:04:57;;;;;;;3.97;0.77;;;;;;;;;;4829106;28;20249;-83
2021/10/04 00:07:21;;;;;;;6.03;1.10;;;;;;;;;;4811664;28;20257;-80
2021/10/04 00:09:46;;;;;;;11.90;1.87;;;9.60;46.50;;;;;;4829206;28;20215;-80
2021/10/04 00:12:09;;;;;;;8.30;1.33;;;9.50;45.80;;;;;;4828545;28;20451;-82
2021/10/04 00:14:32;;;;;;;8.47;1.40;;;;;;;;;;4825907;28;20186;-84
2021/10/04 00:16:55;;;;;;;3.57;0.80;;;9.40;46.30;;;;;;4809462;28;20269;-79
2021/10/04 00:19:18;;;;;;;6.87;1.10;;;;;;;;;;4844950;28;20190;-82
2021/10/04 00:21:41;;;;;;;11.73;1.77;;;;;;;;;;4814117;28;20214;-84
2021/10/04 00:24:06;;;;;;;6.13;1.10;;;10.50;45.70;;;;;;4815032;28;20190;-83
2021/10/04 00:26:31;;;;;;;10.67;1.80;;;9.40;45.60;;;;;;4829401;28;20194;-84
2021/10/04 00:28:54;;;;;;;6.73;1.17;;;;;;;;;;4814225;28;20195;-82
2021/10/04 00:31:16;;;;;;;6.67;1.23;;;9.30;45.50;;;;;;4841748;28;20195;-83
2021/10/04 00:33:39;;;;;;;9.43;1.57;;;;;;;;;;4823972;28;20600;-84
2021/10/04 00:36:02;;;;;;;7.63;1.40;;;;;;;;;;4813589;28;20572;-84
2021/10/04 00:38:25;;;;;;;10.00;1.70;;;;;;;;;;4829435;28;20223;-83
2021/10/04 00:40:48;;;;;;;12.73;2.03;;;;;;;;;;4827228;28;20183;-84
2021/10/04 00:43:11;;;;;;;5.37;1.03;;;9.10;45.00;;;;;;4824316;28;20257;-83
2021/10/04 00:45:34;;;;;;;5.10;0.93;;;;;;;;;;4829284;28;20274;-77
2021/10/04 00:47:57;;;;;;;6.30;1.27;;;9.80;43.90;;;;;;4828141;28;20191;-83
2021/10/04 00:50:22;;;;;;;6.73;1.23;;;9.10;44.70;;;;;;4810202;28;20224;-83
2021/10/04 00:52:45;;;;;;;10.77;1.87;;;;;;;;;;4812958;28;20203;-82
2021/10/04 00:55:11;;;;;;;6.87;1.23;;;10.10;43.30;;;;;;4828002;28;20188;-83
2021/10/04 00:57:34;;;;;;;8.50;1.47;;;;;;;;;;4814413;28;20207;-81
2021/10/04 00:59:59;;;;;;;4.73;0.93;;;9.00;44.10;;;;;;4826713;28;20203;-82
2021/10/04 01:02:21;;;;;;;8.60;1.53;;;;;;;;;;4808315;28;20224;-83
2021/10/04 01:04:44;;;;;;;11.67;1.93;;;;;;;;;;4830513;28;20190;-82
2021/10/04 01:07:07;;;;;;;6.87;1.30;;;9.10;42.60;;;;;;4812701;28;20227;-83
2021/10/04 01:09:29;;;;;;;9.73;1.63;;;8.70;42.40;;;;;;4832252;28;20225;-83
2021/10/04 01:11:53;;;;;;;10.20;1.70;;;8.90;43.60;;;;;;4826550;28;20191;-82
2021/10/04 01:14:15;;;;;;;5.77;1.00;;;;;;;;;;4828826;28;20195;-83
2021/10/04 01:16:39;;;;;;;4.73;1.03;;;8.90;42.30;;;;;;4810847;28;20231;-82
2021/10/04 01:19:02;;;;;;;4.80;1.00;;;;;;;;;;4842946;28;20639;-83
2021/10/04 01:21:26;;;;;;;7.17;1.30;;;9.00;43.60;;;;;;4833419;28;20202;-82
2021/10/04 01:23:48;;;;;;;11.60;2.00;;;9.00;42.50;;;;;;4827091;28;20187;-81
2021/10/04 01:26:12;;;;;;;4.30;0.93;;;;;;;;;;4827458;28;20234;-82
2021/10/04 01:28:34;;;;;;;6.60;1.27;;;8.80;43.80;;;;;;4827148;28;20199;-81
2021/10/04 01:30:57;;;;;;;2.53;0.63;;;8.70;43.60;;;;;;4812484;28;20281;-81
2021/10/04 01:33:20;;;;;;;6.43;1.27;;;8.60;43.30;;;;;;4827821;28;20195;-82
2021/10/04 01:35:43;;;;;;;11.70;1.87;;;;;;;;;;4828507;28;20664;-83
2021/10/04 01:38:08;;;;;;;4.30;0.90;;;8.60;44.00;;;;;;4826009;28;20238;-81
2021/10/04 01:40:30;;;;;;;7.67;1.43;;;;;;;;;;4815479;28;20203;-81
2021/10/04 01:42:53;;;;;;;11.20;1.93;;;;;;;;;;4827111;28;20187;-82
2021/10/04 01:45:26;;;;;;;5.70;1.10;;;8.70;43.50;;;;;;4816336;28;20205;-80
2021/10/04 01:47:49;;;;;;;11.93;2.00;;;8.70;43.00;;;;;;4825573;28;20719;-80
2021/10/04 01:50:13;;;;;;;4.53;0.93;;;8.80;43.00;;;;;;4793876;28;20326;-82
2021/10/04 01:52:36;;;;;;;5.60;1.10;;;;;;;;;;4811999;28;20227;-82
2021/10/04 01:55:00;;;;;;;5.50;1.03;;;9.40;42.10;;;;;;4812305;28;20258;-82
2021/10/04 01:57:24;;;;;;;8.10;1.40;;;;;;;;;;4810891;28;20199;-83
2021/10/04 01:59:46;;;;;;;10.87;1.90;;;8.80;42.50;;;;;;4809571;28;20204;-83
2021/10/04 02:02:09;;;;;;;6.00;1.10;;;;;;;;;;4824482;28;20231;-81
2021/10/04 02:04:32;;;;;;;8.40;1.47;;;;;;;;;;4828823;28;20195;-81
2021/10/04 02:06:55;;;;;;;9.60;1.67;;;;;;;;;;4811242;28;20774;-80
2021/10/04 02:09:17;;;;;;;6.10;1.10;;;8.50;42.30;;;;;;4829246;28;20615;-80
2021/10/04 02:11:41;;;;;;;9.97;1.77;;;8.50;42.70;;;;;;4808266;28;20285;-81
2021/10/04 02:14:04;;;;;;;4.43;0.90;;;;;;;;;;4828094;28;20314;-80
2021/10/04 02:16:26;;;;;;;5.70;1.10;;;8.50;42.20;;;;;;4837489;28;20253;-81
2021/10/04 02:18:49;;;;;;;12.20;1.83;;;8.30;41.70;;;;;;4821814;28;20211;-80
2021/10/04 02:21:12;;;;;;;6.60;1.13;;;;;;;;;;4841356;28;20201;-82
2021/10/04 02:23:35;;;;;;;9.40;1.53;;;;;;;;;;4834152;28;20194;-81
2021/10/04 02:25:57;;;;;;;3.07;0.73;;;8.30;42.00;;;;;;4841959;28;20236;-80
2021/10/04 02:28:21;;;;;;;6.70;1.20;;;9.20;42.10;;;;;;4830057;28;20191;-81
2021/10/04 02:30:44;;;;;;;11.93;1.97;;;8.30;41.00;;;;;;4808998;28;20698;-81
2021/10/04 02:33:08;;;;;;;4.93;0.90;;;8.30;42.40;;;;;;4788607;28;20211;-81
2021/10/04 02:35:31;;;;;;;7.63;1.37;;;8.30;41.80;;;;;;4832871;28;20237;-81
2021/10/04 02:37:55;;;;;;;11.53;2.03;;;8.30;42.10;;;;;;4809891;28;20227;-81
2021/10/04 02:40:17;;;;;;;5.10;1.03;;;9.60;42.60;;;;;;4792422;28;20231;-80
2021/10/04 02:42:40;;;;;;;10.00;1.73;;;6.60;41.80;;;;;;4823008;28;20187;-81
2021/10/04 02:45:07;;;;;;;5.57;1.07;;;8.20;42.20;;;;;;4825268;28;20198;-80
2021/10/04 02:47:30;;;;;;;6.93;1.23;;;;;;;;;;4810399;28;20200;-80
2021/10/04 02:49:52;;;;;;;8.13;1.57;;;;;;;;;;4823838;28;20736;-78
2021/10/04 02:52:17;;;;;;;6.27;1.23;;;;;;;;;;4826357;28;20216;-80
2021/10/04 02:54:39;;;;;;;8.90;1.57;;;8.10;42.30;;;;;;4828500;28;20199;-79
2021/10/04 02:57:02;;;;;;;4.93;0.90;;;8.20;41.90;;;;;;4811791;28;20774;-81
2021/10/04 02:59:25;;;;;;;6.07;1.20;;;8.00;40.90;;;;;;4810030;28;20217;-81
2021/10/04 03:01:49;;;;;;;10.73;1.83;;;8.10;42.00;;;;;;4837558;28;20233;-79
2021/10/04 03:04:12;;;;;;;5.40;1.13;;;;;;;;;;4813482;28;20227;-81
2021/10/04 03:06:34;;;;;;;4.40;1.00;;;;;;;;;;4846269;28;20611;-79
2021/10/04 03:08:57;;;;;;;3.97;0.90;;;;;;;;;;4815240;28;20223;-80
2021/10/04 03:11:20;;;;;;;5.07;1.10;;;7.80;41.50;;;;;;4813836;28;20203;-78
2021/10/04 03:13:42;;;;;;;9.03;1.70;;;8.10;40.70;;;;;;4811945;28;20224;-80
2021/10/04 03:16:05;;;;;;;5.93;1.27;;;8.00;41.90;;;;;;4814646;28;20203;-77
2021/10/04 03:18:29;;;;;;;5.77;1.20;;;7.90;42.00;;;;;;4813202;28;20218;-81
2021/10/04 03:20:51;;;;;;;10.13;2.00;;;8.00;40.50;;;;;;4812934;28;20341;-81
2021/10/04 03:23:14;;;;;;;5.13;0.97;;;7.80;41.30;;;;;;4848442;28;20186;-79
2021/10/04 03:25:37;;;;;;;4.33;1.07;;;7.70;42.90;;;;;;4828286;28;20199;-81
2021/10/04 03:28:00;;;;;;;3.70;0.93;;;7.10;42.40;;;;;;4828884;28;20186;-78
2021/10/04 03:30:23;;;;;;;8.60;1.70;;;7.70;42.40;;;;;;4813504;28;20672;-80
2021/10/04 03:32:46;;;;;;;11.50;2.07;;;;;;;;;;4837473;28;20241;-78
2021/10/04 03:35:13;;;;;;;4.20;1.00;;;7.70;42.60;;;;;;4815096;28;20195;-77
2021/10/04 03:37:36;;;;;;;3.47;0.83;;;;;;;;;;4809126;28;20218;-78
2021/10/04 03:39:59;;;;;;;3.20;0.83;;;;;;;;;;4814677;28;20207;-79
2021/10/04 03:42:21;;;;;;;4.00;0.87;;;7.70;40.80;;;;;;4826538;28;20215;-79
2021/10/04 03:44:44;;;;;;;9.23;1.77;;;7.50;40.00;;;;;;4822725;28;20259;-80
2021/10/04 03:47:07;;;;;;;3.80;0.87;;;;;;;;;;4834958;28;20253;-78
2021/10/04 03:49:29;;;;;;;6.13;1.27;;;;;;;;;;4812548;28;20739;-76
2021/10/04 03:51:53;;;;;;;11.03;2.13;;;7.80;38.80;;;;;;4844627;28;20652;-75
2021/10/04 03:54:16;;;;;;;4.00;0.83;;;;;;;;;;4814022;28;20549;-77
2021/10/04 03:56:39;;;;;;;5.67;1.13;;;8.00;37.00;;;;;;4827592;28;20559;-76
2021/10/04 03:59:01;;;;;;;3.67;0.90;;;7.90;38.20;;;;;;4828912;28;20191;-75
2021/10/04 04:01:24;;;;;;;5.77;1.20;;;;;;;;;;4810480;28;20234;-76
2021/10/04 04:03:51;;;;;;;8.50;1.73;;;;;;;;;;4826856;28;20214;-77
2021/10/04 04:06:14;;;;;;;3.90;0.90;;;8.20;39.20;;;;;;4826674;28;20186;-77
2021/10/04 04:08:38;;;;;;;2.47;0.70;;;7.90;39.70;;;;;;4830193;28;21027;-77
2021/10/04 04:11:01;;;;;;;3.70;0.90;;;;;;;;;;4827650;28;20250;-76
2021/10/04 04:13:24;;;;;;;3.83;0.87;;;;;;;;;;4828581;28;20608;-77
2021/10/04 04:15:47;;;;;;;7.40;1.57;;;;;;;;;;4841785;28;20552;-79
2021/10/04 04:18:10;;;;;;;3.67;1.00;;;7.20;38.40;;;;;;4832491;28;20186;-77
2021/10/04 04:20:32;;;;;;;5.57;1.30;;;7.80;39.50;;;;;;4828665;28;20190;-77
2021/10/04 04:22:55;;;;;;;8.83;1.77;;;7.50;39.10;;;;;;4813824;28;20199;-76
2021/10/04 04:25:19;;;;;;;5.43;1.20;;;7.90;38.70;;;;;;4825064;28;20242;-76
2021/10/04 04:27:42;;;;;;;9.13;1.93;;;8.00;38.80;;;;;;4824862;28;20187;-76
2021/10/04 04:30:05;;;;;;;4.40;1.00;;;8.20;38.90;;;;;;4831380;28;20191;-76
2021/10/04 04:32:28;;;;;;;5.13;1.20;;;;;;;;;;4835858;28;20191;-77
2021/10/04 04:34:51;;;;;;;9.10;1.90;;;7.80;36.90;;;;;;4813137;28;20203;-77
2021/10/04 04:37:14;;;;;;;4.37;0.93;;;7.90;37.90;;;;;;4813621;28;20187;-77
2021/10/04 04:39:37;;;;;;;2.90;0.80;;;8.00;37.60;;;;;;4813456;28;20242;-78
2021/10/04 04:42:02;;;;;;;5.43;1.20;;;8.00;38.00;;;;;;4828835;28;20618;-77
2021/10/04 04:44:24;;;;;;;7.10;1.47;;;7.90;38.20;;;;;;4827674;28;20195;-75
2021/10/04 04:46:47;;;;;;;8.20;1.77;;;7.90;36.60;;;;;;4830302;28;20195;-77
2021/10/04 04:49:09;;;;;;;5.43;1.20;;;8.10;36.10;;;;;;4843300;28;20183;-76
2021/10/04 04:51:32;;;;;;;6.13;1.33;;;7.50;35.60;;;;;;4828970;28;20195;-75
2021/10/04 04:53:55;;;;;;;7.90;1.67;;;8.20;36.30;;;;;;4813261;28;20283;-76
2021/10/04 04:56:18;;;;;;;3.70;1.00;;;;;;;;;;4823742;28;20206;-80
2021/10/04 04:58:42;;;;;;;6.73;1.40;;;9.00;36.20;;;;;;4812869;28;20621;-81
2021/10/04 05:01:04;;;;;;;3.87;1.03;;;8.90;36.00;;;;;;4809160;28;20195;-76
2021/10/04 05:03:27;;;;;;;6.27;1.30;;;8.40;35.60;;;;;;4795070;28;20228;-78
2021/10/04 05:05:50;;;;;;;8.47;1.80;;;;;;;;;;4813787;28;20231;-79
2021/10/04 05:08:13;;;;;;;4.93;1.07;;;;;;;;;;4815644;28;20261;-80
2021/10/04 05:10:35;;;;;;;5.17;1.10;;;8.20;35.60;;;;;;4829739;28;20195;-78
2021/10/04 05:12:58;;;;;;;2.80;0.73;;;7.30;36.20;;;;;;4807663;28;20247;-80
2021/10/04 05:15:22;;;;;;;6.20;1.20;;;8.30;35.30;;;;;;4812618;28;20195;-75
2021/10/04 05:17:45;;;;;;;7.73;1.70;;;;;;;;;;4849226;28;20182;-79
2021/10/04 05:20:09;;;;;;;3.93;0.90;;;8.90;35.50;;;;;;4851661;28;20835;-80
2021/10/04 05:22:31;;;;;;;6.23;1.37;;;8.50;35.90;;;;;;4812381;28;20215;-80
2021/10/04 05:24:55;;;;;;;8.37;1.67;;;;;;;;;;4813078;28;20208;-81
2021/10/04 05:27:17;;;;;;;3.73;0.97;;;8.90;36.70;;;;;;4827773;28;20250;-78
2021/10/04 05:29:40;;;;;;;5.40;1.13;;;;;;;;;;4843457;28;20555;-76
2021/10/04 05:32:05;;;;;;;4.67;1.00;;;8.70;37.80;;;;;;4844595;28;20243;-78
2021/10/04 05:34:28;;;;;;;6.53;1.37;;;;;;;;;;4810397;28;20681;-78
2021/10/04 05:36:50;;;;;;;7.20;1.60;;;9.30;38.50;;;;;;4827396;28;20783;-77
2021/10/04 05:39:13;;;;;;;4.87;1.10;;;8.50;39.00;;;;;;4803445;28;20634;-78
2021/10/04 05:41:36;;;;;;;4.17;1.03;;;;;;;;;;4830336;28;20821;-76
2021/10/04 05:43:59;;;;;;;3.67;0.87;;;;;;;;;;4810866;28;20555;-77
2021/10/04 05:46:21;;;;;;;5.30;1.20;;;8.80;37.50;;;;;;4827651;28;20602;-80
2021/10/04 05:48:45;;;;;;;8.63;1.67;;;9.00;37.60;;;;;;4842778;28;20199;-78
2021/10/04 05:51:09;;;;;;;10.97;2.17;;;8.80;37.70;;;;;;4829577;28;20238;-76
2021/10/04 05:53:32;;;;;;;5.10;1.17;;;9.30;37.40;;;;;;4830637;28;20253;-76
2021/10/04 05:55:55;;;;;;;9.47;1.97;;;9.50;37.30;;;;;;4827784;28;20586;-80
2021/10/04 05:58:18;;;;;;;3.73;0.90;;;9.40;38.60;;;;;;4834275;28;20190;-77
2021/10/04 06:00:41;;;;;;;52.43;9.03;;;;;;;;;;4836318;28;20248;-77
2021/10/04 06:03:05;;;;;;;4.77;1.00;;;9.60;37.40;;;;;;4820302;28;20264;-78
2021/10/04 06:05:30;;;;;;;9.87;1.73;;;9.60;38.90;;;;;;4819822;28;20259;-78
2021/10/04 06:07:52;;;;;;;8.77;1.63;;;9.10;37.80;;;;;;4837888;28;20219;-78
2021/10/04 06:10:17;;;;;;;4.53;1.07;;;;;;;;;;4838210;28;20198;-80
2021/10/04 06:12:40;;;;;;;5.57;1.27;;;;;;;;;;4836248;28;20746;-77
2021/10/04 06:15:03;;;;;;;3.73;0.90;;;10.10;37.90;;;;;;4819911;28;20198;-78
2021/10/04 06:17:27;;;;;;;5.07;1.23;;;10.20;39.40;;;;;;4778376;28;20200;-80
2021/10/04 06:19:50;;;;;;;10.97;2.17;;;;;;;;;;4819033;28;20226;-80
2021/10/04 06:22:16;;;;;;;4.57;1.10;;;10.40;39.80;;;;;;4837137;28;20218;-80
2021/10/04 06:24:43;;;;;;;11.57;2.23;;;;;;;;;;4804208;28;20230;-80
2021/10/04 06:27:06;;;;;;;14.20;2.67;;;10.70;40.10;;;;;;4824171;28;20249;-79
2021/10/04 06:29:28;;;;;;;6.73;1.37;;;10.50;39.50;;;;;;4826000;28;20203;-77
2021/10/04 06:31:51;;;;;;;18.43;3.33;;;;;;;;;;4823702;28;20580;-76
2021/10/04 06:34:14;;;;;;;4.80;0.93;;;;;;;;;;4812774;28;20309;-76
2021/10/04 06:36:36;;;;;;;20.67;4.07;;;11.80;41.70;;;;;;4820435;28;20258;-77
2021/10/04 06:39:00;;;;;;;2.80;0.80;;;12.10;43.90;;;;;;4825790;28;20249;-75
2021/10/04 06:41:23;;;;;;;5.97;1.30;;;;;;;;;;4821914;28;20249;-76
2021/10/04 06:43:46;;;;;;;9.23;1.83;;;;;;;;;;4835274;28;20257;-76
2021/10/04 06:46:09;;;;;;;45.83;7.80;;;;;;;;;;4820491;28;20241;-76
2021/10/04 06:48:31;;;;;;;7.73;1.63;;;;;;;;;;4834527;28;20253;-79
2021/10/04 06:50:54;;;;;;;12.87;2.40;;;;;;;;;;4821667;28;20608;-80
2021/10/04 06:53:17;;;;;;;5.20;1.10;;;;;;;;;;4834938;28;20193;-81
2021/10/04 06:55:41;;;;;;;127.07;16.37;;;12.80;46.80;;;;;;4822036;28;20632;-78
2021/10/04 06:58:04;;;;;;;16.63;2.40;;;;;;;;;;4827950;28;20258;-80
2021/10/04 07:00:27;;;;;;;18.50;2.63;;;;;;;;;;4825788;28;20234;-78
2021/10/04 07:02:49;;;;;;;15.07;2.13;;;;;;;;;;4817055;28;20235;-81
2021/10/04 07:05:12;;;;;;;10.00;1.43;;;;;;;;;;4837530;28;20580;-77
2021/10/04 07:07:35;;;;;;;7.20;1.13;;;;;;;;;;4840960;28;20234;-81
2021/10/04 07:09:58;;;;;;;15.93;2.20;;;;;;;;;;4823276;28;20191;-82
2021/10/04 07:12:21;;;;;;;6.33;1.00;;;13.80;48.20;;;;;;4841559;28;20248;-83
2021/10/04 07:14:44;;;;;;;17.70;2.33;;;;;;;;;;4807491;28;20196;-78
2021/10/04 07:17:07;;;;;;;8.20;1.23;;;;;;;;;;4840470;28;20194;-79
2021/10/04 07:19:30;;;;;;;8.50;1.27;;;;;;;;;;4837827;28;20664;-81
2021/10/04 07:21:52;;;;;;;10.50;1.53;;;;;;;;;;4840915;28;20187;-81
2021/10/04 07:24:15;;;;;;;7.87;1.10;;;;;;;;;;4856225;28;20233;-81
2021/10/04 07:26:38;;;;;;;7.37;1.00;;;;;;;;;;4823206;28;20207;-80
2021/10/04 07:29:03;;;;;;;9.77;1.30;;;14.70;48.90;;;;;;4840814;28;20762;-78
2021/10/04 07:31:26;;;;;;;7.53;1.17;;;;;;;;;;4841021;28;20244;-79
2021/10/04 07:33:49;;;;;;;14.83;2.00;;;;;;;;;;4840706;28;20199;-83
2021/10/04 07:36:12;;;;;;;6.20;0.93;;;;;;;;;;4823267;28;20192;-83
2021/10/04 07:38:34;;;;;;;9.87;1.40;;;;;;;;;;4823929;28;20314;-83
2021/10/04 07:40:58;;;;;;;16.27;2.20;;;;;;;;;;4840658;28;20241;-83
2021/10/04 07:43:20;;;;;;;4.80;0.70;;;;;;;;;;4823270;28;20238;-81
2021/10/04 07:45:44;;;;;;;13.03;1.70;;;16.20;49.90;;;;;;4840017;28;20190;-83
2021/10/04 07:48:07;;;;;;;13.00;1.70;;;;;;;;;;4840600;28;20187;-85
2021/10/04 07:50:31;;;;;;;9.43;1.30;;;;;;;;;;4840020;28;20675;-83
2021/10/04 07:52:54;;;;;;;17.97;2.37;;;;;;;;;;4822817;28;20744;-82
2021/10/04 07:55:17;;;;;;;6.90;1.00;;;;;;;;;;4840356;28;20183;-84
2021/10/04 07:57:40;;;;;;;6.73;1.03;;;;;;;;;;4839843;28;20206;-84
2021/10/04 08:00:03;;;;;;;7.30;1.10;;;;;;;;;;4840943;28;20190;-85
2021/10/04 08:02:36;;;;;;;21.00;2.70;;;18.40;52.10;;;;;;4829714;28;20246;-84
2021/10/04 08:04:59;;;;;;;21.23;2.73;;;;;;;;;;4836853;28;20249;-82
2021/10/04 08:07:22;;;;;;;6.30;1.03;;;;;;;;;;4839144;28;20696;-86
2021/10/04 08:09:45;;;;;;;18.13;2.37;;;;;;;;;;4840064;28;20191;-86
2021/10/04 08:12:08;;;;;;;9.03;1.33;;;;;;;;;;4840393;28;20232;-87
2021/10/04 08:14:30;;;;;;;10.13;1.43;;;;;;;;;;4829440;28;20267;-86
2021/10/04 08:16:53;;;;;;;17.23;2.23;;;;;;;;;;4828904;28;20193;-84
2021/10/04 08:19:19;;;;;;;9.20;1.23;;;18.40;52.60;;;;;;4840610;28;20179;-86
2021/10/04 08:21:42;;;;;;;7.33;0.97;;;;;;;;;;4840265;28;20660;-86
2021/10/04 08:24:04;;;;;;;6.23;0.90;;;;;;;;;;4840353;28;20211;-87
2021/10/04 08:26:27;;;;;;;9.37;1.23;;;;;;;;;;4840332;28;20241;-87
2021/10/04 08:28:50;;;;;;;19.03;2.43;;;;;;;;;;4840349;28;20210;-91
2021/10/04 08:31:12;;;;;;;6.23;0.87;;;19.20;51.90;;;;;;4841228;28;20650;-88
2021/10/04 08:33:36;;;;;;;4.23;0.80;;;19.00;53.10;;;;;;4841160;28;20241;-87
2021/10/04 08:35:59;;;;;;;7.23;1.10;;;19.20;53.20;;;;;;4839220;28;20220;-88
2021/10/04 08:38:22;;;;;;;3.67;0.57;;;;;;;;;;4839551;28;20195;-85
2021/10/04 08:40:45;;;;;;;316.60;161.43;;;;;;;;;;4840481;28;20199;-87
2021/10/04 08:43:08;;;;;;;304.43;158.13;;;;;;;;;;4841312;28;20261;-87
2021/10/04 08:45:30;;;;;;;285.00;157.17;;;;;;;;;;4840629;28;20289;-86
2021/10/04 08:47:58;;;;;;;66.87;22.27;;;;;;;;;;4840863;28;20196;-85
2021/10/04 08:50:20;;;;;;;5.17;0.83;;;;;;;;;;4840364;28;20185;-84
2021/10/04 08:52:44;;;;;;;11.43;1.70;;;21.50;54.10;;;;;;4840509;28;20192;-85
2021/10/04 08:55:08;;;;;;;6.33;0.97;;;21.60;54.10;;;;;;4840554;28;20192;-87
2021/10/04 08:57:31;;;;;;;4.67;0.87;;;;;;;;;;4837277;28;20196;-87
2021/10/04 08:59:53;;;;;;;7.40;1.23;;;;;;;;;;4840044;28;20206;-88
2021/10/04 09:02:24;;;;;;;6.33;1.10;;;22.30;55.40;;;;;;4836341;28;20238;-86
2021/10/04 09:04:47;;;;;;;10.07;1.53;;;;;;;;;;4855147;28;20221;-83
2021/10/04 09:07:11;;;;;;;11.53;1.73;;;;;;;;;;4840243;28;20222;-88
2021/10/04 09:09:53;;;;;;;4.13;0.80;;;24.60;58.60;;;;;;4839786;28;20202;-87
2021/10/04 09:12:21;;;;;;;5.50;0.90;;;25.90;43.60;;;;;;4805675;28;20237;-87
2021/10/04 09:14:43;;;;;;;5.47;0.87;;;26.60;44.40;;;;;;4839596;28;20555;-88
2021/10/04 09:17:08;;;;;;;7.23;1.03;;;28.40;45.30;;;;;;4829971;28;20200;-84
2021/10/04 09:19:32;;;;;;;7.37;1.00;;;28.40;46.90;;;;;;4820790;28;20664;-82
2021/10/04 09:22:10;;;;;;;16.97;2.07;;;29.00;46.00;;;;;;4819686;28;20202;-85
2021/10/04 09:24:32;;;;;;;69.60;58.77;;;;;;;;;;4820851;28;20621;-88
2021/10/04 09:26:56;;;;;;;22.47;2.70;;;29.10;47.50;;;;;;4819876;28;20248;-86
2021/10/04 09:29:20;;;;;;;20.00;14.67;;;;;;;;;;4820534;28;20185;-83
2021/10/04 09:31:44;;;;;;;326.37;274.73;;;29.90;47.90;;;;;;4823786;28;20188;-83
2021/10/04 09:34:10;;;;;;;109.93;73.00;;;30.10;48.00;;;;;;4821716;28;20210;-85
2021/10/04 09:36:34;;;;;;;302.20;203.07;;;30.60;48.30;;;;;;4820058;28;20198;-82
2021/10/04 09:39:17;;;;;;;136.20;91.50;;;31.70;48.90;;;;;;4820555;28;20253;-85
2021/10/04 09:41:59;;;;;;;10.07;1.27;;;33.70;49.70;;;;;;4820769;28;20202;-81
2021/10/04 09:44:21;;;;;;;11.10;1.60;;;;;;;;;;4837353;28;20372;-83
2021/10/04 09:46:44;;;;;;;11.13;1.48;;;35.10;49.80;;;;;;4838298;28;20190;-82
2021/10/04 09:49:07;;;;;;;8.70;1.20;;;;;;;;;;4838118;28;20773;-83
2021/10/04 09:51:29;;;;;;;10.40;1.40;;;37.90;51.60;;;;;;4838520;28;20225;-85
2021/10/04 09:54:07;;;;;;;21.20;2.67;;;38.50;51.70;;;;;;4836261;28;20704;-81
2021/10/04 09:56:29;;;;;;;11.38;1.58;;;39.10;51.00;;;;;;4838254;28;20179;-77
2021/10/04 09:58:53;;;;;;;16.70;2.15;;;39.10;51.10;;;;;;4837951;28;20540;-83
2021/10/04 10:01:16;;;;;;;12.18;1.73;;;;;;;;;;4835681;28;20584;-84
2021/10/04 10:03:41;;;;;;;17.23;2.22;;;40.80;52.50;;;;;;4836327;28;20288;-83
2021/10/04 10:06:03;;;;;;;6.60;0.90;;;41.90;52.00;;;;;;4837200;28;20606;-82
2021/10/04 10:08:27;;;;;;;12.65;1.65;;;42.40;52.20;;;;;;4836496;28;20280;-82
2021/10/04 10:10:52;;;;;;;16.02;2.00;;;42.70;52.40;;;;;;4837893;28;20244;-83
2021/10/04 10:13:18;;;;;;;12.15;1.58;;;41.50;52.10;;;;;;4836577;28;20198;-80
2021/10/04 10:15:45;;;;;;;7.32;0.90;;;42.80;53.50;;;;;;4836840;28;20190;-77
2021/10/04 10:18:15;;;;;;;6.57;0.85;;;41.00;52.00;;;;;;4837697;28;20233;-80
2021/10/04 10:20:39;;;;;;;12.65;1.58;;;39.80;52.60;;;;;;4837590;28;20593;-79
2021/10/04 10:23:01;;;;;;;8.50;1.15;;;40.80;52.20;;;;;;4837193;28;20198;-85
2021/10/04 10:25:39;;;;;;;13.52;1.77;;;41.90;53.20;;;;;;4837389;28;20245;-82
2021/10/04 10:28:04;;;;;;;19.67;2.55;;;42.30;52.50;;;;;;4836865;28;20178;-83
2021/10/04 10:30:28;;;;;;;18.73;2.40;;;43.40;52.90;;;;;;4837336;28;20195;-85
2021/10/04 10:32:52;;;;;;;11.73;1.52;;;43.90;53.10;;;;;;4836149;28;20214;-82
2021/10/04 10:35:15;;;;;;;8.70;1.20;;;43.90;53.20;;;;;;4837548;28;20632;-83
2021/10/04 10:37:50;;;;;;;7.07;0.98;;;44.30;53.30;;;;;;4852333;28;20185;-90
2021/10/04 10:40:15;;;;;;;8.80;1.20;;;44.50;54.10;;;;;;4837567;28;20202;-77
2021/10/04 10:42:41;;;;;;;6.45;0.90;;;45.40;54.30;;;;;;4837503;28;20202;-78
2021/10/04 10:45:12;;;;;;;8.95;1.23;;;44.90;53.90;;;;;;4837526;28;20214;-81
2021/10/04 10:48:00;;;;;;;14.98;2.00;;;45.30;53.60;;;;;;4836327;28;20589;-82
2021/10/04 10:50:34;;;;;;;7.55;1.05;;;44.20;53.30;;;;;;4822944;28;20206;-81
2021/10/04 10:53:08;;;;;;;13.05;1.70;;;44.30;53.30;;;;;;4836622;28;20244;-85
2021/10/04 10:55:39;;;;;;;8.65;1.20;;;44.20;54.10;;;;;;4837505;28;20185;-81
2021/10/04 10:58:05;;;;;;;11.30;1.52;;;44.70;54.30;;;;;;4837292;28;20197;-76
2021/10/04 11:00:30;;;;;;;27.02;3.45;;;44.50;54.30;;;;;;4837347;28;20205;-78
2021/10/04 11:02:55;;;;;;;16.48;2.15;;;43.90;53.20;;;;;;4838719;28;20289;-81
2021/10/04 11:05:51;;;;;;;5.85;0.82;;;43.90;54.10;;;;;;4837326;28;20218;-77
2021/10/04 11:08:16;;;;;;;10.70;1.45;;;44.50;54.20;;;;;;4823561;28;20235;-77
2021/10/04 11:11:10;;;;;;;10.00;1.33;;;45.20;53.60;;;;;;4851495;28;20186;-84
2021/10/04 11:13:36;;;;;;;11.25;1.52;;;45.60;54.60;;;;;;4835095;28;20589;-85
2021/10/04 11:16:01;;;;;;;16.05;2.05;;;46.00;54.70;;;;;;4835520;28;20256;-86
2021/10/04 11:18:24;;;;;;;7.72;1.08;;;46.80;55.00;;;;;;4837264;28;20183;-84
2021/10/04 11:20:47;;;;;;;20.65;2.67;;;46.80;54.90;;;;;;4835687;28;20261;-81
2021/10/04 11:23:13;;;;;;;9.02;1.17;;;47.70;55.30;;;;;;4836157;28;20194;-86
2021/10/04 11:25:42;;;;;;;14.23;1.85;;;47.80;55.20;;;;;;4835939;28;20222;-85
2021/10/04 11:28:05;;;;;;;9.73;1.35;;;47.50;55.00;;;;;;4821381;28;20183;-81
2021/10/04 11:30:27;;;;;;;23.25;2.95;;;47.30;54.90;;;;;;4821746;28;20723;-82
2021/10/04 11:33:08;;;;;;;18.33;2.20;;;48.10;55.50;;;;;;4838878;28;20187;-85
2021/10/04 11:35:31;;;;;;;12.65;1.73;;;;;;;;;;4840589;28;20182;-83
2021/10/04 11:37:55;;;;;;;15.18;1.98;;;48.50;54.70;;;;;;4840500;28;20191;-81
2021/10/04 11:40:18;;;;;;;7.43;1.00;;;;;;;;;;4840458;28;20210;-87
2021/10/04 11:42:42;;;;;;;18.60;2.35;;;48.90;55.70;;;;;;4838436;28;20182;-80
2021/10/04 11:45:10;;;;;;;6.75;0.93;;;49.30;55.90;;;;;;4822348;28;20309;-85
2021/10/04 11:47:41;;;;;;;14.27;1.85;;;49.30;55.90;;;;;;4806361;28;20200;-79
2021/10/04 11:50:11;;;;;;;8.00;1.13;;;49.50;55.90;;;;;;4840456;28;20802;-84
2021/10/04 11:52:34;;;;;;;15.68;2.05;;;;;;;;;;4839147;28;20183;-82
2021/10/04 11:54:57;;;;;;;21.45;2.67;;;49.80;56.10;;;;;;4839036;28;20199;-81
2021/10/04 11:57:31;;;;;;;12.60;1.63;;;50.30;56.20;;;;;;4839417;28;20236;-79
2021/10/04 11:59:58;;;;;;;20.05;2.45;;;50.20;56.20;;;;;;4839627;28;20465;-76
2021/10/04 12:02:24;;;;;;;12.00;1.63;;;49.80;55.80;;;;;;4833182;28;20269;-77
2021/10/04 12:04:47;;;;;;;17.88;2.35;;;;;;;;;;4837758;28;20226;-80
2021/10/04 12:07:09;;;;;;;8.48;1.15;;;49.90;55.20;;;;;;4839645;28;20230;-87
2021/10/04 12:09:32;;;;;;;12.05;1.63;;;50.00;55.20;;;;;;4839897;28;20572;-84
2021/10/04 12:11:56;;;;;;;28.80;3.70;;;50.70;56.30;;;;;;4838100;28;20194;-77
2021/10/04 12:14:20;;;;;;;21.95;2.80;;;50.70;56.30;;;;;;4838595;28;20186;-85
2021/10/04 12:16:44;;;;;;;11.32;1.58;;;50.90;56.40;;;;;;4804841;28;20207;-75
2021/10/04 12:19:08;;;;;;;10.82;1.40;;;51.00;56.50;;;;;;4839128;28;20597;-84
2021/10/04 12:21:41;;;;;;;13.85;1.80;;;50.90;56.40;;;;;;4839036;28;20265;-81
2021/10/04 12:24:08;;;;;;;11.65;1.52;;;51.80;56.60;;;;;;4838082;28;20179;-79
2021/10/04 12:26:31;;;;;;;16.35;2.05;;;;;;;;;;4820309;28;20226;-79
2021/10/04 12:28:54;;;;;;;22.75;2.83;;;;;;;;;;4838680;28;20656;-82
2021/10/04 12:31:34;;;;;;;11.75;1.60;;;51.00;56.50;;;;;;4838487;28;20190;-81
2021/10/04 12:33:59;;;;;;;30.08;3.63;;;51.50;56.60;;;;;;4837964;28;20190;-78
2021/10/04 12:36:23;;;;;;;14.93;1.88;;;;;;;;;;4836986;28;20186;-78
2021/10/04 12:38:57;;;;;;;21.38;2.63;;;52.30;56.90;;;;;;4838799;28;20191;-80
2021/10/04 12:41:19;;;;;;;10.07;1.33;;;51.00;55.50;;;;;;4838694;28;20195;-76
2021/10/04 12:43:42;;;;;;;11.60;1.45;;;;;;;;;;4838066;28;21061;-74
2021/10/04 12:46:10;;;;;;;20.85;2.53;;;51.00;56.50;;;;;;4838190;28;20269;-80
2021/10/04 12:48:37;;;;;;;14.20;1.75;;;51.20;56.50;;;;;;4838478;28;20206;-77
2021/10/04 12:51:06;;;;;;;22.45;2.63;;;50.90;55.80;;;;;;4839071;28;20209;-80
2021/10/04 12:53:29;;;;;;;19.13;2.25;;;;;;;;;;4837516;28;20244;-81
2021/10/04 12:55:58;;;;;;;22.73;2.65;;;50.50;56.00;;;;;;4838605;28;20195;-76
2021/10/04 12:58:21;;;;;;;14.27;1.85;;;50.00;56.10;;;;;;4837653;28;20190;-80
2021/10/04 13:00:46;;;;;;;85.80;9.68;;;;;;;;;;4835069;28;20201;-80
2021/10/04 13:03:08;;;;;;;12.23;1.58;;;48.60;55.70;;;;;;4819470;28;20241;-78
2021/10/04 13:05:31;;;;;;;11.23;1.42;;;;;;;;;;4820363;28;20588;-78
2021/10/04 13:07:55;;;;;;;26.25;3.13;;;45.60;42.90;;;;;;4833571;28;20218;-78
2021/10/04 13:10:18;;;;;;;13.52;1.70;;;44.20;71.30;;;;;;4838367;28;20182;-83